Retreat, Georgia
Current Conditions -  °F | °C
As of 8:44 AM on Saturday 20 Dec 2014 (Local Time) from KLHW Reporting Station
Drizzle Drizzle  
Wind Chill: 52°   Ceiling: 8000
Heat Index: 52°   Visibility: 10mi
Dew Point: 50°   Wind: 6mph
Humidity: 94%   Direction: 350°N
Pressure: 30.16"   Gusts: NA
Location:  31.7217°N, 81.4475°W
Report Text: KLHW 201344Z AUTO 35005KT 10SM -DZ BKN080 OVC100 11/10 A3016 RMK AO2
Loading
Personal Weather Stations






























Interactive Weather Map New forecast layout! Learn more

10-Day Weather Forecast

Advertisements
Track Severe Weather on mobile